sensor_id;sensor_type;location;lat;lon;timestamp;P1;durP1;ratioP1;P2;durP2;ratioP2
43150;SDS011;28755;51.478;5.702;2023-03-01T00:02:12;8.38;;;6.82;;
43150;SDS011;28755;51.478;5.702;2023-03-01T00:04:38;12.40;;;7.30;;
43150;SDS011;28755;51.478;5.702;2023-03-01T00:07:03;10.70;;;7.20;;
43150;SDS011;28755;51.478;5.702;2023-03-01T00:09:29;9.85;;;7.47;;
43150;SDS011;28755;51.478;5.702;2023-03-01T00:11:54;10.75;;;6.75;;
43150;SDS011;28755;51.478;5.702;2023-03-01T00:14:20;9.00;;;6.55;;
43150;SDS011;28755;51.478;5.702;2023-03-01T00:16:46;11.75;;;7.40;;
43150;SDS011;28755;51.478;5.702;2023-03-01T00:19:12;9.25;;;6.90;;
43150;SDS011;28755;51.478;5.702;2023-03-01T00:21:40;14.25;;;7.10;;
43150;SDS011;28755;51.478;5.702;2023-03-01T00:24:06;11.77;;;7.35;;
43150;SDS011;28755;51.478;5.702;2023-03-01T00:26:33;12.35;;;7.38;;
43150;SDS011;28755;51.478;5.702;2023-03-01T00:28:59;8.18;;;6.68;;
43150;SDS011;28755;51.478;5.702;2023-03-01T00:31:25;9.82;;;6.63;;
43150;SDS011;28755;51.478;5.702;2023-03-01T00:33:55;11.85;;;7.05;;
43150;SDS011;28755;51.478;5.702;2023-03-01T00:36:22;9.60;;;6.63;;
43150;SDS011;28755;51.478;5.702;2023-03-01T00:38:49;9.85;;;6.95;;
43150;SDS011;28755;51.478;5.702;2023-03-01T00:41:16;10.90;;;7.00;;
43150;SDS011;28755;51.478;5.702;2023-03-01T00:43:42;9.57;;;6.35;;
43150;SDS011;28755;51.478;5.702;2023-03-01T00:46:09;11.02;;;7.30;;
43150;SDS011;28755;51.478;5.702;2023-03-01T00:48:40;13.02;;;6.93;;
43150;SDS011;28755;51.478;5.702;2023-03-01T00:51:10;10.18;;;6.72;;
43150;SDS011;28755;51.478;5.702;2023-03-01T00:53:44;12.10;;;7.00;;
43150;SDS011;28755;51.478;5.702;2023-03-01T00:56:10;12.07;;;6.80;;
43150;SDS011;28755;51.478;5.702;2023-03-01T00:58:38;9.85;;;7.00;;
43150;SDS011;28755;51.478;5.702;2023-03-01T01:01:07;10.52;;;7.10;;
43150;SDS011;28755;51.478;5.702;2023-03-01T01:03:42;9.52;;;6.78;;
43150;SDS011;28755;51.478;5.702;2023-03-01T01:06:19;9.85;;;6.70;;
43150;SDS011;28755;51.478;5.702;2023-03-01T01:08:46;10.98;;;6.68;;
43150;SDS011;28755;51.478;5.702;2023-03-01T01:11:11;9.48;;;6.45;;
43150;SDS011;28755;51.478;5.702;2023-03-01T01:13:38;11.35;;;6.90;;
43150;SDS011;28755;51.478;5.702;2023-03-01T01:16:04;11.85;;;6.75;;
43150;SDS011;28755;51.478;5.702;2023-03-01T01:18:30;10.23;;;6.93;;
43150;SDS011;28755;51.478;5.702;2023-03-01T01:20:56;10.55;;;6.38;;
43150;SDS011;28755;51.478;5.702;2023-03-01T01:23:22;11.65;;;6.93;;
43150;SDS011;28755;51.478;5.702;2023-03-01T01:25:47;10.20;;;6.65;;
43150;SDS011;28755;51.478;5.702;2023-03-01T01:28:13;9.07;;;6.43;;
43150;SDS011;28755;51.478;5.702;2023-03-01T01:30:38;9.73;;;6.45;;
43150;SDS011;28755;51.478;5.702;2023-03-01T01:33:04;11.48;;;6.85;;
43150;SDS011;28755;51.478;5.702;2023-03-01T01:35:29;10.40;;;6.60;;
43150;SDS011;28755;51.478;5.702;2023-03-01T01:37:55;12.32;;;6.60;;
43150;SDS011;28755;51.478;5.702;2023-03-01T01:40:21;12.15;;;6.88;;
43150;SDS011;28755;51.478;5.702;2023-03-01T01:42:46;10.65;;;7.03;;
43150;SDS011;28755;51.478;5.702;2023-03-01T01:45:26;11.85;;;6.82;;
43150;SDS011;28755;51.478;5.702;2023-03-01T01:47:56;8.98;;;6.55;;
43150;SDS011;28755;51.478;5.702;2023-03-01T01:50:25;10.73;;;6.85;;
43150;SDS011;28755;51.478;5.702;2023-03-01T01:52:51;9.68;;;7.00;;
43150;SDS011;28755;51.478;5.702;2023-03-01T01:55:20;11.50;;;7.30;;
43150;SDS011;28755;51.478;5.702;2023-03-01T01:57:53;12.75;;;6.85;;
43150;SDS011;28755;51.478;5.702;2023-03-01T02:00:23;10.80;;;7.43;;
43150;SDS011;28755;51.478;5.702;2023-03-01T02:02:51;11.20;;;6.67;;
43150;SDS011;28755;51.478;5.702;2023-03-01T02:08:05;10.73;;;6.88;;
43150;SDS011;28755;51.478;5.702;2023-03-01T02:10:33;9.75;;;6.90;;
43150;SDS011;28755;51.478;5.702;2023-03-01T02:13:00;9.38;;;6.75;;
43150;SDS011;28755;51.478;5.702;2023-03-01T02:15:27;10.70;;;6.68;;
43150;SDS011;28755;51.478;5.702;2023-03-01T02:20:27;12.32;;;6.95;;
43150;SDS011;28755;51.478;5.702;2023-03-01T02:23:00;11.88;;;7.43;;
43150;SDS011;28755;51.478;5.702;2023-03-01T02:25:44;10.23;;;7.43;;
43150;SDS011;28755;51.478;5.702;2023-03-01T02:31:03;10.45;;;7.15;;
43150;SDS011;28755;51.478;5.702;2023-03-01T02:33:49;17.63;;;6.88;;
43150;SDS011;28755;51.478;5.702;2023-03-01T02:36:17;12.07;;;7.32;;
43150;SDS011;28755;51.478;5.702;2023-03-01T02:38:46;12.30;;;7.90;;
43150;SDS011;28755;51.478;5.702;2023-03-01T02:41:15;8.88;;;6.78;;
43150;SDS011;28755;51.478;5.702;2023-03-01T02:43:42;11.57;;;7.25;;
43150;SDS011;28755;51.478;5.702;2023-03-01T02:46:14;14.23;;;7.78;;
43150;SDS011;28755;51.478;5.702;2023-03-01T02:48:43;11.27;;;7.65;;
43150;SDS011;28755;51.478;5.702;2023-03-01T02:51:14;12.50;;;7.60;;
43150;SDS011;28755;51.478;5.702;2023-03-01T02:54:28;9.77;;;6.95;;
43150;SDS011;28755;51.478;5.702;2023-03-01T02:56:58;10.23;;;6.88;;
43150;SDS011;28755;51.478;5.702;2023-03-01T02:59:26;11.95;;;7.25;;
43150;SDS011;28755;51.478;5.702;2023-03-01T03:01:55;9.68;;;6.75;;
43150;SDS011;28755;51.478;5.702;2023-03-01T03:04:21;11.40;;;7.32;;
43150;SDS011;28755;51.478;5.702;2023-03-01T03:06:47;12.60;;;7.60;;
43150;SDS011;28755;51.478;5.702;2023-03-01T03:09:14;13.68;;;7.32;;
43150;SDS011;28755;51.478;5.702;2023-03-01T03:11:41;11.85;;;7.30;;
43150;SDS011;28755;51.478;5.702;2023-03-01T03:14:11;10.60;;;7.03;;
43150;SDS011;28755;51.478;5.702;2023-03-01T03:16:42;11.60;;;7.10;;
43150;SDS011;28755;51.478;5.702;2023-03-01T03:19:12;11.45;;;7.53;;
43150;SDS011;28755;51.478;5.702;2023-03-01T03:21:38;12.02;;;6.97;;
43150;SDS011;28755;51.478;5.702;2023-03-01T03:24:04;10.55;;;6.78;;
43150;SDS011;28755;51.478;5.702;2023-03-01T03:26:30;11.10;;;7.20;;
43150;SDS011;28755;51.478;5.702;2023-03-01T03:28:56;11.52;;;7.10;;
43150;SDS011;28755;51.478;5.702;2023-03-01T03:31:22;12.63;;;7.18;;
43150;SDS011;28755;51.478;5.702;2023-03-01T03:33:47;10.27;;;6.88;;
43150;SDS011;28755;51.478;5.702;2023-03-01T03:36:20;10.88;;;7.60;;
43150;SDS011;28755;51.478;5.702;2023-03-01T03:38:47;13.27;;;7.22;;
43150;SDS011;28755;51.478;5.702;2023-03-01T03:41:13;14.35;;;7.00;;
43150;SDS011;28755;51.478;5.702;2023-03-01T03:43:39;11.43;;;7.75;;
43150;SDS011;28755;51.478;5.702;2023-03-01T03:46:07;10.57;;;6.72;;
43150;SDS011;28755;51.478;5.702;2023-03-01T03:48:43;9.32;;;7.00;;
43150;SDS011;28755;51.478;5.702;2023-03-01T03:51:11;11.35;;;7.55;;
43150;SDS011;28755;51.478;5.702;2023-03-01T03:53:41;9.80;;;6.72;;
43150;SDS011;28755;51.478;5.702;2023-03-01T03:56:07;11.13;;;7.32;;
43150;SDS011;28755;51.478;5.702;2023-03-01T03:58:33;12.15;;;7.35;;
43150;SDS011;28755;51.478;5.702;2023-03-01T04:00:58;10.10;;;7.13;;
43150;SDS011;28755;51.478;5.702;2023-03-01T04:03:26;14.35;;;8.15;;
43150;SDS011;28755;51.478;5.702;2023-03-01T04:05:53;10.85;;;7.38;;
43150;SDS011;28755;51.478;5.702;2023-03-01T04:08:22;11.45;;;7.57;;
43150;SDS011;28755;51.478;5.702;2023-03-01T04:10:52;11.90;;;7.30;;
43150;SDS011;28755;51.478;5.702;2023-03-01T04:13:21;10.60;;;7.22;;
43150;SDS011;28755;51.478;5.702;2023-03-01T04:15:50;10.45;;;6.90;;
43150;SDS011;28755;51.478;5.702;2023-03-01T04:18:17;10.85;;;7.00;;
43150;SDS011;28755;51.478;5.702;2023-03-01T04:20:44;9.68;;;6.80;;
43150;SDS011;28755;51.478;5.702;2023-03-01T04:23:14;15.07;;;7.50;;
43150;SDS011;28755;51.478;5.702;2023-03-01T04:28:24;11.82;;;7.55;;
43150;SDS011;28755;51.478;5.702;2023-03-01T04:31:03;13.13;;;7.45;;
43150;SDS011;28755;51.478;5.702;2023-03-01T04:33:51;11.30;;;7.63;;
43150;SDS011;28755;51.478;5.702;2023-03-01T04:36:18;15.80;;;8.10;;
43150;SDS011;28755;51.478;5.702;2023-03-01T04:38:45;13.43;;;7.85;;
43150;SDS011;28755;51.478;5.702;2023-03-01T04:41:14;13.43;;;8.52;;
43150;SDS011;28755;51.478;5.702;2023-03-01T04:43:41;13.75;;;7.68;;
43150;SDS011;28755;51.478;5.702;2023-03-01T04:46:08;13.48;;;7.45;;
43150;SDS011;28755;51.478;5.702;2023-03-01T04:48:41;11.60;;;7.78;;
43150;SDS011;28755;51.478;5.702;2023-03-01T04:51:08;12.15;;;7.78;;
43150;SDS011;28755;51.478;5.702;2023-03-01T04:53:34;12.18;;;8.05;;
43150;SDS011;28755;51.478;5.702;2023-03-01T04:56:03;11.18;;;8.25;;
43150;SDS011;28755;51.478;5.702;2023-03-01T04:58:29;14.68;;;8.65;;
43150;SDS011;28755;51.478;5.702;2023-03-01T05:00:55;13.05;;;8.90;;
43150;SDS011;28755;51.478;5.702;2023-03-01T05:03:20;13.77;;;8.45;;
43150;SDS011;28755;51.478;5.702;2023-03-01T05:05:47;19.30;;;8.55;;
43150;SDS011;28755;51.478;5.702;2023-03-01T05:08:15;12.85;;;8.45;;
43150;SDS011;28755;51.478;5.702;2023-03-01T05:10:49;14.20;;;8.60;;
43150;SDS011;28755;51.478;5.702;2023-03-01T05:13:16;11.10;;;8.20;;
43150;SDS011;28755;51.478;5.702;2023-03-01T05:15:53;13.75;;;8.88;;
43150;SDS011;28755;51.478;5.702;2023-03-01T05:18:20;11.60;;;8.45;;
43150;SDS011;28755;51.478;5.702;2023-03-01T05:20:45;12.18;;;8.55;;
43150;SDS011;28755;51.478;5.702;2023-03-01T05:23:12;12.50;;;8.40;;
43150;SDS011;28755;51.478;5.702;2023-03-01T05:25:37;12.30;;;8.38;;
43150;SDS011;28755;51.478;5.702;2023-03-01T05:28:05;15.52;;;8.40;;
43150;SDS011;28755;51.478;5.702;2023-03-01T05:30:35;12.70;;;8.05;;
43150;SDS011;28755;51.478;5.702;2023-03-01T05:33:01;13.38;;;8.88;;
43150;SDS011;28755;51.478;5.702;2023-03-01T05:35:26;12.02;;;8.82;;
43150;SDS011;28755;51.478;5.702;2023-03-01T05:37:53;14.73;;;8.48;;
43150;SDS011;28755;51.478;5.702;2023-03-01T05:40:20;12.65;;;8.63;;
43150;SDS011;28755;51.478;5.702;2023-03-01T05:42:48;14.82;;;8.20;;
43150;SDS011;28755;51.478;5.702;2023-03-01T05:45:19;13.93;;;8.65;;
43150;SDS011;28755;51.478;5.702;2023-03-01T05:47:45;13.60;;;8.85;;
43150;SDS011;28755;51.478;5.702;2023-03-01T05:50:13;13.75;;;8.65;;
43150;SDS011;28755;51.478;5.702;2023-03-01T05:52:44;15.57;;;8.85;;
43150;SDS011;28755;51.478;5.702;2023-03-01T05:55:10;13.77;;;9.10;;
43150;SDS011;28755;51.478;5.702;2023-03-01T05:57:36;15.40;;;8.90;;
43150;SDS011;28755;51.478;5.702;2023-03-01T06:00:02;14.10;;;8.57;;
43150;SDS011;28755;51.478;5.702;2023-03-01T06:02:28;16.55;;;9.13;;
43150;SDS011;28755;51.478;5.702;2023-03-01T06:04:54;15.88;;;9.10;;
43150;SDS011;28755;51.478;5.702;2023-03-01T06:07:20;13.80;;;9.13;;
43150;SDS011;28755;51.478;5.702;2023-03-01T06:09:46;13.40;;;9.18;;
43150;SDS011;28755;51.478;5.702;2023-03-01T06:12:11;16.08;;;9.10;;
43150;SDS011;28755;51.478;5.702;2023-03-01T06:14:37;13.57;;;9.05;;
43150;SDS011;28755;51.478;5.702;2023-03-01T06:17:03;15.30;;;8.88;;
43150;SDS011;28755;51.478;5.702;2023-03-01T06:19:28;14.23;;;9.02;;
43150;SDS011;28755;51.478;5.702;2023-03-01T06:21:54;13.80;;;8.43;;
43150;SDS011;28755;51.478;5.702;2023-03-01T06:24:19;14.23;;;9.93;;
43150;SDS011;28755;51.478;5.702;2023-03-01T06:26:45;13.80;;;9.20;;
43150;SDS011;28755;51.478;5.702;2023-03-01T06:29:10;16.50;;;9.70;;
43150;SDS011;28755;51.478;5.702;2023-03-01T06:31:36;13.63;;;9.07;;
43150;SDS011;28755;51.478;5.702;2023-03-01T06:34:02;14.00;;;9.77;;
43150;SDS011;28755;51.478;5.702;2023-03-01T06:36:27;13.70;;;9.68;;
43150;SDS011;28755;51.478;5.702;2023-03-01T06:38:53;13.50;;;9.77;;
43150;SDS011;28755;51.478;5.702;2023-03-01T06:41:18;16.98;;;9.30;;
43150;SDS011;28755;51.478;5.702;2023-03-01T06:43:44;16.08;;;9.77;;
43150;SDS011;28755;51.478;5.702;2023-03-01T06:46:09;14.23;;;8.90;;
43150;SDS011;28755;51.478;5.702;2023-03-01T06:48:35;13.57;;;9.52;;
43150;SDS011;28755;51.478;5.702;2023-03-01T06:51:01;15.93;;;9.15;;
43150;SDS011;28755;51.478;5.702;2023-03-01T06:53:27;14.70;;;9.57;;
43150;SDS011;28755;51.478;5.702;2023-03-01T06:55:56;13.77;;;8.88;;
43150;SDS011;28755;51.478;5.702;2023-03-01T06:58:23;13.95;;;9.38;;
43150;SDS011;28755;51.478;5.702;2023-03-01T07:00:48;13.10;;;8.80;;
43150;SDS011;28755;51.478;5.702;2023-03-01T07:03:14;12.93;;;9.10;;
43150;SDS011;28755;51.478;5.702;2023-03-01T07:05:39;13.43;;;9.30;;
43150;SDS011;28755;51.478;5.702;2023-03-01T07:08:05;11.63;;;8.07;;
43150;SDS011;28755;51.478;5.702;2023-03-01T07:10:30;13.27;;;8.10;;
43150;SDS011;28755;51.478;5.702;2023-03-01T07:12:56;16.48;;;8.52;;
43150;SDS011;28755;51.478;5.702;2023-03-01T07:15:23;11.75;;;7.20;;
43150;SDS011;28755;51.478;5.702;2023-03-01T07:17:49;12.50;;;7.75;;
43150;SDS011;28755;51.478;5.702;2023-03-01T07:20:16;16.98;;;7.57;;
43150;SDS011;28755;51.478;5.702;2023-03-01T07:22:42;17.85;;;7.28;;
43150;SDS011;28755;51.478;5.702;2023-03-01T07:25:08;8.95;;;6.60;;
43150;SDS011;28755;51.478;5.702;2023-03-01T07:27:35;10.63;;;7.00;;
43150;SDS011;28755;51.478;5.702;2023-03-01T07:30:01;9.88;;;6.88;;
43150;SDS011;28755;51.478;5.702;2023-03-01T07:32:26;11.70;;;7.10;;
43150;SDS011;28755;51.478;5.702;2023-03-01T07:34:52;17.95;;;8.02;;
43150;SDS011;28755;51.478;5.702;2023-03-01T07:37:17;12.45;;;7.50;;
43150;SDS011;28755;51.478;5.702;2023-03-01T07:39:43;12.98;;;8.05;;
43150;SDS011;28755;51.478;5.702;2023-03-01T07:42:08;13.93;;;8.07;;
43150;SDS011;28755;51.478;5.702;2023-03-01T07:44:34;12.02;;;7.70;;
43150;SDS011;28755;51.478;5.702;2023-03-01T07:47:00;15.65;;;8.27;;
43150;SDS011;28755;51.478;5.702;2023-03-01T07:49:25;10.50;;;6.95;;
43150;SDS011;28755;51.478;5.702;2023-03-01T07:51:52;11.15;;;7.50;;
43150;SDS011;28755;51.478;5.702;2023-03-01T07:54:17;8.90;;;6.72;;
43150;SDS011;28755;51.478;5.702;2023-03-01T07:56:43;11.25;;;7.22;;
43150;SDS011;28755;51.478;5.702;2023-03-01T07:59:09;9.75;;;6.63;;
43150;SDS011;28755;51.478;5.702;2023-03-01T08:01:34;12.98;;;7.53;;
43150;SDS011;28755;51.478;5.702;2023-03-01T08:04:00;10.32;;;7.20;;
43150;SDS011;28755;51.478;5.702;2023-03-01T08:06:26;15.80;;;7.53;;
43150;SDS011;28755;51.478;5.702;2023-03-01T08:08:52;10.32;;;7.15;;
43150;SDS011;28755;51.478;5.702;2023-03-01T08:11:21;14.32;;;8.10;;
43150;SDS011;28755;51.478;5.702;2023-03-01T08:13:47;12.05;;;7.20;;
43150;SDS011;28755;51.478;5.702;2023-03-01T08:16:14;10.18;;;7.53;;
43150;SDS011;28755;51.478;5.702;2023-03-01T08:18:40;15.02;;;7.65;;
43150;SDS011;28755;51.478;5.702;2023-03-01T08:21:07;9.15;;;6.82;;
43150;SDS011;28755;51.478;5.702;2023-03-01T08:23:38;9.20;;;6.65;;
43150;SDS011;28755;51.478;5.702;2023-03-01T08:26:10;8.75;;;6.50;;
43150;SDS011;28755;51.478;5.702;2023-03-01T08:28:38;14.32;;;6.78;;
43150;SDS011;28755;51.478;5.702;2023-03-01T08:31:14;9.30;;;6.72;;
43150;SDS011;28755;51.478;5.702;2023-03-01T08:33:43;10.27;;;6.85;;
43150;SDS011;28755;51.478;5.702;2023-03-01T08:36:09;10.30;;;6.70;;
43150;SDS011;28755;51.478;5.702;2023-03-01T08:38:34;9.15;;;6.82;;
43150;SDS011;28755;51.478;5.702;2023-03-01T08:41:01;12.18;;;6.88;;
43150;SDS011;28755;51.478;5.702;2023-03-01T08:43:27;9.98;;;6.53;;
43150;SDS011;28755;51.478;5.702;2023-03-01T08:45:53;10.05;;;6.78;;
43150;SDS011;28755;51.478;5.702;2023-03-01T08:48:19;11.55;;;7.60;;
43150;SDS011;28755;51.478;5.702;2023-03-01T08:50:44;13.25;;;6.95;;
43150;SDS011;28755;51.478;5.702;2023-03-01T08:53:10;8.80;;;6.75;;
43150;SDS011;28755;51.478;5.702;2023-03-01T08:55:36;9.90;;;6.57;;
43150;SDS011;28755;51.478;5.702;2023-03-01T08:58:01;12.35;;;6.90;;
43150;SDS011;28755;51.478;5.702;2023-03-01T09:00:27;7.75;;;6.10;;
43150;SDS011;28755;51.478;5.702;2023-03-01T09:02:52;8.02;;;6.30;;
43150;SDS011;28755;51.478;5.702;2023-03-01T09:05:18;9.10;;;6.55;;
43150;SDS011;28755;51.478;5.702;2023-03-01T09:07:43;12.05;;;6.75;;
43150;SDS011;28755;51.478;5.702;2023-03-01T09:10:09;11.38;;;6.78;;
43150;SDS011;28755;51.478;5.702;2023-03-01T09:12:35;11.20;;;6.93;;
43150;SDS011;28755;51.478;5.702;2023-03-01T09:15:00;10.35;;;6.65;;
43150;SDS011;28755;51.478;5.702;2023-03-01T09:17:26;8.75;;;6.43;;
43150;SDS011;28755;51.478;5.702;2023-03-01T09:19:52;10.77;;;6.55;;
43150;SDS011;28755;51.478;5.702;2023-03-01T09:22:17;8.65;;;6.18;;
43150;SDS011;28755;51.478;5.702;2023-03-01T09:24:43;8.70;;;6.35;;
43150;SDS011;28755;51.478;5.702;2023-03-01T09:27:08;8.13;;;5.78;;
43150;SDS011;28755;51.478;5.702;2023-03-01T09:29:35;8.27;;;5.78;;
43150;SDS011;28755;51.478;5.702;2023-03-01T09:32:01;8.70;;;5.63;;
43150;SDS011;28755;51.478;5.702;2023-03-01T09:34:27;9.15;;;6.15;;
43150;SDS011;28755;51.478;5.702;2023-03-01T09:36:53;8.48;;;5.90;;
43150;SDS011;28755;51.478;5.702;2023-03-01T09:39:18;8.80;;;6.22;;
43150;SDS011;28755;51.478;5.702;2023-03-01T09:44:31;9.27;;;6.32;;
43150;SDS011;28755;51.478;5.702;2023-03-01T09:47:05;10.35;;;6.55;;
43150;SDS011;28755;51.478;5.702;2023-03-01T09:49:42;11.38;;;6.90;;
43150;SDS011;28755;51.478;5.702;2023-03-01T09:52:28;8.10;;;6.55;;
43150;SDS011;28755;51.478;5.702;2023-03-01T09:54:57;9.85;;;7.20;;
43150;SDS011;28755;51.478;5.702;2023-03-01T10:02:48;11.88;;;7.07;;
43150;SDS011;28755;51.478;5.702;2023-03-01T10:05:34;18.35;;;6.95;;
43150;SDS011;28755;51.478;5.702;2023-03-01T10:11:01;8.65;;;7.13;;
43150;SDS011;28755;51.478;5.702;2023-03-01T10:16:15;11.63;;;6.85;;
43150;SDS011;28755;51.478;5.702;2023-03-01T10:18:46;8.95;;;6.90;;
43150;SDS011;28755;51.478;5.702;2023-03-01T10:21:18;10.85;;;7.25;;
43150;SDS011;28755;51.478;5.702;2023-03-01T10:23:45;11.13;;;7.13;;
43150;SDS011;28755;51.478;5.702;2023-03-01T10:26:15;11.38;;;7.20;;
43150;SDS011;28755;51.478;5.702;2023-03-01T10:28:58;10.02;;;6.82;;
43150;SDS011;28755;51.478;5.702;2023-03-01T10:34:14;11.35;;;7.18;;
43150;SDS011;28755;51.478;5.702;2023-03-01T10:36:47;10.13;;;7.20;;
43150;SDS011;28755;51.478;5.702;2023-03-01T10:39:23;13.93;;;7.43;;
43150;SDS011;28755;51.478;5.702;2023-03-01T10:41:55;9.32;;;6.90;;
43150;SDS011;28755;51.478;5.702;2023-03-01T10:44:40;10.63;;;6.30;;
43150;SDS011;28755;51.478;5.702;2023-03-01T10:47:14;8.98;;;6.72;;
43150;SDS011;28755;51.478;5.702;2023-03-01T10:52:29;10.30;;;6.25;;
43150;SDS011;28755;51.478;5.702;2023-03-01T10:54:58;9.18;;;6.85;;
43150;SDS011;28755;51.478;5.702;2023-03-01T10:57:37;9.25;;;6.68;;
43150;SDS011;28755;51.478;5.702;2023-03-01T11:00:16;7.63;;;6.03;;
43150;SDS011;28755;51.478;5.702;2023-03-01T11:02:49;7.88;;;6.10;;
43150;SDS011;28755;51.478;5.702;2023-03-01T11:05:22;9.27;;;6.22;;
43150;SDS011;28755;51.478;5.702;2023-03-01T11:07:50;7.50;;;6.20;;
43150;SDS011;28755;51.478;5.702;2023-03-01T11:10:36;8.32;;;6.20;;
43150;SDS011;28755;51.478;5.702;2023-03-01T11:13:06;9.57;;;6.03;;
43150;SDS011;28755;51.478;5.702;2023-03-01T11:15:42;7.50;;;5.82;;
43150;SDS011;28755;51.478;5.702;2023-03-01T11:18:22;7.72;;;5.78;;
43150;SDS011;28755;51.478;5.702;2023-03-01T11:20:48;8.20;;;5.88;;
43150;SDS011;28755;51.478;5.702;2023-03-01T11:23:18;7.18;;;5.43;;
43150;SDS011;28755;51.478;5.702;2023-03-01T11:25:53;9.50;;;5.65;;
43150;SDS011;28755;51.478;5.702;2023-03-01T11:28:21;8.07;;;5.97;;
43150;SDS011;28755;51.478;5.702;2023-03-01T11:39:18;8.77;;;5.60;;
43150;SDS011;28755;51.478;5.702;2023-03-01T11:41:52;7.53;;;6.03;;
43150;SDS011;28755;51.478;5.702;2023-03-01T11:52:11;8.23;;;5.53;;
43150;SDS011;28755;51.478;5.702;2023-03-01T12:08:33;6.60;;;5.18;;
43150;SDS011;28755;51.478;5.702;2023-03-01T12:11:29;7.55;;;5.60;;
43150;SDS011;28755;51.478;5.702;2023-03-01T12:17:02;7.13;;;4.72;;
43150;SDS011;28755;51.478;5.702;2023-03-01T12:23:21;5.53;;;4.13;;
43150;SDS011;28755;51.478;5.702;2023-03-01T12:25:48;6.15;;;4.72;;
43150;SDS011;28755;51.478;5.702;2023-03-01T12:40:17;7.13;;;4.90;;
43150;SDS011;28755;51.478;5.702;2023-03-01T12:48:24;7.00;;;5.32;;
43150;SDS011;28755;51.478;5.702;2023-03-01T12:51:05;6.93;;;5.38;;
43150;SDS011;28755;51.478;5.702;2023-03-01T12:53:36;8.52;;;4.85;;
43150;SDS011;28755;51.478;5.702;2023-03-01T12:56:13;6.03;;;5.00;;
43150;SDS011;28755;51.478;5.702;2023-03-01T13:01:25;7.97;;;5.80;;
43150;SDS011;28755;51.478;5.702;2023-03-01T13:07:28;6.18;;;4.90;;
43150;SDS011;28755;51.478;5.702;2023-03-01T13:12:45;8.30;;;5.47;;
43150;SDS011;28755;51.478;5.702;2023-03-01T13:15:36;7.60;;;5.15;;
43150;SDS011;28755;51.478;5.702;2023-03-01T13:18:03;6.65;;;4.88;;
43150;SDS011;28755;51.478;5.702;2023-03-01T13:20:53;8.23;;;5.28;;
43150;SDS011;28755;51.478;5.702;2023-03-01T13:23:24;6.10;;;4.78;;
43150;SDS011;28755;51.478;5.702;2023-03-01T13:31:07;9.13;;;6.00;;
43150;SDS011;28755;51.478;5.702;2023-03-01T13:33:41;9.00;;;5.40;;
43150;SDS011;28755;51.478;5.702;2023-03-01T13:38:55;10.57;;;4.90;;
43150;SDS011;28755;51.478;5.702;2023-03-01T13:44:24;6.63;;;4.85;;
43150;SDS011;28755;51.478;5.702;2023-03-01T13:47:17;8.00;;;5.63;;
43150;SDS011;28755;51.478;5.702;2023-03-01T13:49:48;7.07;;;5.43;;
43150;SDS011;28755;51.478;5.702;2023-03-01T13:52:38;7.55;;;5.32;;
43150;SDS011;28755;51.478;5.702;2023-03-01T13:57:38;7.90;;;5.35;;
43150;SDS011;28755;51.478;5.702;2023-03-01T14:00:06;9.02;;;5.72;;
43150;SDS011;28755;51.478;5.702;2023-03-01T14:02:59;8.65;;;5.30;;
43150;SDS011;28755;51.478;5.702;2023-03-01T14:05:25;8.13;;;5.30;;
43150;SDS011;28755;51.478;5.702;2023-03-01T14:07:51;7.05;;;5.18;;
43150;SDS011;28755;51.478;5.702;2023-03-01T14:10:17;11.45;;;6.70;;
43150;SDS011;28755;51.478;5.702;2023-03-01T14:15:38;10.77;;;6.10;;
43150;SDS011;28755;51.478;5.702;2023-03-01T14:18:15;6.95;;;5.65;;
43150;SDS011;28755;51.478;5.702;2023-03-01T14:20:48;9.05;;;6.35;;
43150;SDS011;28755;51.478;5.702;2023-03-01T14:23:18;8.30;;;5.78;;
43150;SDS011;28755;51.478;5.702;2023-03-01T14:25:57;7.53;;;5.70;;
43150;SDS011;28755;51.478;5.702;2023-03-01T14:28:24;12.63;;;6.03;;
43150;SDS011;28755;51.478;5.702;2023-03-01T14:30:52;8.07;;;5.72;;
43150;SDS011;28755;51.478;5.702;2023-03-01T14:41:03;11.38;;;6.32;;
43150;SDS011;28755;51.478;5.702;2023-03-01T14:43:29;10.30;;;6.63;;
43150;SDS011;28755;51.478;5.702;2023-03-01T14:45:56;9.68;;;6.18;;
43150;SDS011;28755;51.478;5.702;2023-03-01T14:48:22;12.30;;;6.30;;
43150;SDS011;28755;51.478;5.702;2023-03-01T14:50:48;11.38;;;6.68;;
43150;SDS011;28755;51.478;5.702;2023-03-01T14:53:19;8.48;;;6.28;;
43150;SDS011;28755;51.478;5.702;2023-03-01T14:55:49;9.85;;;6.72;;
43150;SDS011;28755;51.478;5.702;2023-03-01T14:58:19;12.27;;;6.63;;
43150;SDS011;28755;51.478;5.702;2023-03-01T15:00:49;8.43;;;6.35;;
43150;SDS011;28755;51.478;5.702;2023-03-01T15:03:23;10.48;;;6.47;;
43150;SDS011;28755;51.478;5.702;2023-03-01T15:05:49;18.85;;;6.50;;
43150;SDS011;28755;51.478;5.702;2023-03-01T15:08:17;10.27;;;6.55;;
43150;SDS011;28755;51.478;5.702;2023-03-01T15:11:16;9.82;;;6.57;;
43150;SDS011;28755;51.478;5.702;2023-03-01T15:13:42;9.85;;;6.68;;
43150;SDS011;28755;51.478;5.702;2023-03-01T15:16:11;10.75;;;6.65;;
43150;SDS011;28755;51.478;5.702;2023-03-01T15:18:44;11.35;;;6.53;;
43150;SDS011;28755;51.478;5.702;2023-03-01T15:21:19;13.20;;;6.93;;
43150;SDS011;28755;51.478;5.702;2023-03-01T15:23:54;11.80;;;6.43;;
43150;SDS011;28755;51.478;5.702;2023-03-01T15:26:30;9.57;;;6.93;;
43150;SDS011;28755;51.478;5.702;2023-03-01T15:29:00;11.45;;;6.47;;
43150;SDS011;28755;51.478;5.702;2023-03-01T15:31:27;10.20;;;6.70;;
43150;SDS011;28755;51.478;5.702;2023-03-01T15:34:10;13.57;;;7.28;;
43150;SDS011;28755;51.478;5.702;2023-03-01T15:36:47;8.57;;;6.07;;
43150;SDS011;28755;51.478;5.702;2023-03-01T15:39:49;11.63;;;6.55;;
43150;SDS011;28755;51.478;5.702;2023-03-01T15:45:21;8.25;;;6.45;;
43150;SDS011;28755;51.478;5.702;2023-03-01T15:47:50;9.35;;;6.55;;
43150;SDS011;28755;51.478;5.702;2023-03-01T15:50:22;8.35;;;6.10;;
43150;SDS011;28755;51.478;5.702;2023-03-01T15:52:55;9.40;;;6.70;;
43150;SDS011;28755;51.478;5.702;2023-03-01T15:55:29;9.50;;;7.32;;
43150;SDS011;28755;51.478;5.702;2023-03-01T16:00:29;11.57;;;7.20;;
43150;SDS011;28755;51.478;5.702;2023-03-01T16:02:55;11.10;;;7.20;;
43150;SDS011;28755;51.478;5.702;2023-03-01T16:05:31;9.45;;;6.90;;
43150;SDS011;28755;51.478;5.702;2023-03-01T16:07:59;11.30;;;7.10;;
43150;SDS011;28755;51.478;5.702;2023-03-01T16:10:25;10.98;;;7.65;;
43150;SDS011;28755;51.478;5.702;2023-03-01T16:12:51;10.40;;;7.15;;
43150;SDS011;28755;51.478;5.702;2023-03-01T16:15:27;11.35;;;6.43;;
43150;SDS011;28755;51.478;5.702;2023-03-01T16:17:57;10.23;;;7.30;;
43150;SDS011;28755;51.478;5.702;2023-03-01T16:20:26;14.35;;;7.32;;
43150;SDS011;28755;51.478;5.702;2023-03-01T16:22:53;11.23;;;6.78;;
43150;SDS011;28755;51.478;5.702;2023-03-01T16:25:20;9.75;;;7.00;;
43150;SDS011;28755;51.478;5.702;2023-03-01T16:27:47;10.25;;;6.88;;
43150;SDS011;28755;51.478;5.702;2023-03-01T16:30:14;12.40;;;8.05;;
43150;SDS011;28755;51.478;5.702;2023-03-01T16:32:42;11.35;;;7.18;;
43150;SDS011;28755;51.478;5.702;2023-03-01T16:35:10;11.75;;;8.10;;
43150;SDS011;28755;51.478;5.702;2023-03-01T16:37:38;11.65;;;7.40;;
43150;SDS011;28755;51.478;5.702;2023-03-01T16:40:04;12.18;;;7.10;;
43150;SDS011;28755;51.478;5.702;2023-03-01T16:42:35;11.65;;;6.80;;
43150;SDS011;28755;51.478;5.702;2023-03-01T16:45:01;10.50;;;7.18;;
43150;SDS011;28755;51.478;5.702;2023-03-01T16:47:27;10.10;;;6.75;;
43150;SDS011;28755;51.478;5.702;2023-03-01T16:49:53;10.38;;;6.97;;
43150;SDS011;28755;51.478;5.702;2023-03-01T16:52:19;13.95;;;7.30;;
43150;SDS011;28755;51.478;5.702;2023-03-01T16:54:46;11.82;;;7.47;;